sensor_id;sensor_type;location;lat;lon;timestamp;P1;durP1;ratioP1;P2;durP2;ratioP2
67997;SDS011;54773;53.388;-1.504;2023-06-22T00:00:45;6.70;;;4.40;;
67997;SDS011;54773;53.388;-1.504;2023-06-22T00:03:28;8.27;;;4.22;;
67997;SDS011;54773;53.388;-1.504;2023-06-22T00:06:13;7.88;;;4.25;;
67997;SDS011;54773;53.388;-1.504;2023-06-22T00:08:57;8.80;;;4.47;;
67997;SDS011;54773;53.388;-1.504;2023-06-22T00:11:41;8.13;;;4.28;;
67997;SDS011;54773;53.388;-1.504;2023-06-22T00:14:25;8.32;;;4.18;;
67997;SDS011;54773;53.388;-1.504;2023-06-22T00:17:09;11.05;;;4.15;;
67997;SDS011;54773;53.388;-1.504;2023-06-22T00:19:53;8.38;;;4.38;;
67997;SDS011;54773;53.388;-1.504;2023-06-22T00:22:39;6.75;;;4.07;;
67997;SDS011;54773;53.388;-1.504;2023-06-22T00:25:27;7.30;;;4.13;;
67997;SDS011;54773;53.388;-1.504;2023-06-22T00:28:11;6.47;;;4.15;;
67997;SDS011;54773;53.388;-1.504;2023-06-22T00:30:55;6.43;;;4.25;;
67997;SDS011;54773;53.388;-1.504;2023-06-22T00:33:39;6.93;;;4.15;;
67997;SDS011;54773;53.388;-1.504;2023-06-22T00:36:23;7.55;;;3.95;;
67997;SDS011;54773;53.388;-1.504;2023-06-22T00:39:08;7.05;;;3.75;;
67997;SDS011;54773;53.388;-1.504;2023-06-22T00:41:52;7.65;;;4.10;;
67997;SDS011;54773;53.388;-1.504;2023-06-22T00:44:36;7.07;;;3.80;;
67997;SDS011;54773;53.388;-1.504;2023-06-22T00:47:20;7.70;;;3.90;;
67997;SDS011;54773;53.388;-1.504;2023-06-22T00:50:05;6.70;;;4.38;;
67997;SDS011;54773;53.388;-1.504;2023-06-22T00:52:51;8.98;;;3.65;;
67997;SDS011;54773;53.388;-1.504;2023-06-22T00:55:36;7.90;;;3.78;;
67997;SDS011;54773;53.388;-1.504;2023-06-22T00:58:22;5.55;;;3.35;;
67997;SDS011;54773;53.388;-1.504;2023-06-22T01:01:06;5.45;;;3.53;;
67997;SDS011;54773;53.388;-1.504;2023-06-22T01:03:50;6.27;;;3.77;;
67997;SDS011;54773;53.388;-1.504;2023-06-22T01:06:35;5.85;;;3.33;;
67997;SDS011;54773;53.388;-1.504;2023-06-22T01:09:25;6.90;;;3.50;;
67997;SDS011;54773;53.388;-1.504;2023-06-22T01:12:15;5.82;;;3.60;;
67997;SDS011;54773;53.388;-1.504;2023-06-22T01:15:18;7.25;;;3.70;;
67997;SDS011;54773;53.388;-1.504;2023-06-22T01:18:06;6.65;;;3.80;;
67997;SDS011;54773;53.388;-1.504;2023-06-22T01:20:55;5.70;;;3.50;;
67997;SDS011;54773;53.388;-1.504;2023-06-22T01:26:54;7.07;;;3.40;;
67997;SDS011;54773;53.388;-1.504;2023-06-22T01:29:44;6.05;;;3.60;;
67997;SDS011;54773;53.388;-1.504;2023-06-22T01:32:30;5.50;;;3.13;;
67997;SDS011;54773;53.388;-1.504;2023-06-22T01:35:19;6.40;;;2.97;;
67997;SDS011;54773;53.388;-1.504;2023-06-22T01:38:04;8.02;;;3.78;;
67997;SDS011;54773;53.388;-1.504;2023-06-22T01:40:48;6.40;;;3.63;;
67997;SDS011;54773;53.388;-1.504;2023-06-22T01:43:33;6.05;;;3.25;;
67997;SDS011;54773;53.388;-1.504;2023-06-22T01:46:18;6.45;;;3.40;;
67997;SDS011;54773;53.388;-1.504;2023-06-22T01:49:03;6.40;;;3.20;;
67997;SDS011;54773;53.388;-1.504;2023-06-22T01:51:48;6.68;;;3.78;;
67997;SDS011;54773;53.388;-1.504;2023-06-22T01:54:32;5.68;;;3.20;;
67997;SDS011;54773;53.388;-1.504;2023-06-22T01:57:16;6.27;;;3.63;;
67997;SDS011;54773;53.388;-1.504;2023-06-22T02:00:00;5.85;;;3.50;;
67997;SDS011;54773;53.388;-1.504;2023-06-22T02:02:54;6.60;;;3.40;;
67997;SDS011;54773;53.388;-1.504;2023-06-22T02:05:49;6.50;;;3.58;;
67997;SDS011;54773;53.388;-1.504;2023-06-22T02:08:41;6.30;;;3.40;;
67997;SDS011;54773;53.388;-1.504;2023-06-22T02:11:25;5.97;;;3.70;;
67997;SDS011;54773;53.388;-1.504;2023-06-22T02:14:12;5.60;;;3.55;;
67997;SDS011;54773;53.388;-1.504;2023-06-22T02:17:00;6.30;;;3.65;;
67997;SDS011;54773;53.388;-1.504;2023-06-22T02:19:44;6.97;;;3.70;;
67997;SDS011;54773;53.388;-1.504;2023-06-22T02:22:28;5.00;;;3.00;;
67997;SDS011;54773;53.388;-1.504;2023-06-22T02:25:12;6.63;;;3.70;;
67997;SDS011;54773;53.388;-1.504;2023-06-22T02:27:56;7.90;;;3.58;;
67997;SDS011;54773;53.388;-1.504;2023-06-22T02:30:40;6.00;;;3.55;;
67997;SDS011;54773;53.388;-1.504;2023-06-22T02:33:24;4.77;;;3.00;;
67997;SDS011;54773;53.388;-1.504;2023-06-22T02:36:08;6.95;;;3.58;;
67997;SDS011;54773;53.388;-1.504;2023-06-22T02:38:52;7.97;;;4.20;;
67997;SDS011;54773;53.388;-1.504;2023-06-22T02:41:41;6.20;;;3.75;;
67997;SDS011;54773;53.388;-1.504;2023-06-22T02:44:25;6.75;;;3.95;;
67997;SDS011;54773;53.388;-1.504;2023-06-22T02:47:09;6.88;;;4.13;;
67997;SDS011;54773;53.388;-1.504;2023-06-22T02:49:53;8.45;;;3.92;;
67997;SDS011;54773;53.388;-1.504;2023-06-22T02:52:37;6.97;;;4.10;;
67997;SDS011;54773;53.388;-1.504;2023-06-22T02:55:24;7.97;;;3.90;;
67997;SDS011;54773;53.388;-1.504;2023-06-22T02:58:07;8.73;;;4.22;;
67997;SDS011;54773;53.388;-1.504;2023-06-22T03:00:52;6.65;;;4.15;;
67997;SDS011;54773;53.388;-1.504;2023-06-22T03:03:36;6.63;;;3.85;;
67997;SDS011;54773;53.388;-1.504;2023-06-22T03:06:21;6.07;;;3.70;;
67997;SDS011;54773;53.388;-1.504;2023-06-22T03:09:07;5.80;;;3.42;;
67997;SDS011;54773;53.388;-1.504;2023-06-22T03:11:51;6.15;;;3.30;;
67997;SDS011;54773;53.388;-1.504;2023-06-22T03:14:35;6.10;;;3.33;;
67997;SDS011;54773;53.388;-1.504;2023-06-22T03:17:18;6.23;;;3.27;;
67997;SDS011;54773;53.388;-1.504;2023-06-22T03:20:02;7.50;;;3.70;;
67997;SDS011;54773;53.388;-1.504;2023-06-22T03:22:54;6.45;;;3.40;;
67997;SDS011;54773;53.388;-1.504;2023-06-22T03:25:38;5.97;;;3.35;;
67997;SDS011;54773;53.388;-1.504;2023-06-22T03:28:22;6.03;;;3.58;;
67997;SDS011;54773;53.388;-1.504;2023-06-22T03:31:07;6.47;;;3.30;;
67997;SDS011;54773;53.388;-1.504;2023-06-22T03:33:51;6.00;;;3.38;;
67997;SDS011;54773;53.388;-1.504;2023-06-22T03:36:36;4.57;;;2.85;;
67997;SDS011;54773;53.388;-1.504;2023-06-22T03:39:19;8.10;;;3.70;;
67997;SDS011;54773;53.388;-1.504;2023-06-22T03:42:04;7.13;;;3.85;;
67997;SDS011;54773;53.388;-1.504;2023-06-22T03:44:48;6.57;;;3.25;;
67997;SDS011;54773;53.388;-1.504;2023-06-22T03:47:32;7.18;;;3.35;;
67997;SDS011;54773;53.388;-1.504;2023-06-22T03:50:17;6.28;;;3.80;;
67997;SDS011;54773;53.388;-1.504;2023-06-22T03:53:06;6.25;;;3.55;;
67997;SDS011;54773;53.388;-1.504;2023-06-22T03:55:50;5.80;;;3.20;;
67997;SDS011;54773;53.388;-1.504;2023-06-22T03:58:35;6.30;;;3.58;;
67997;SDS011;54773;53.388;-1.504;2023-06-22T04:01:20;6.63;;;3.35;;
67997;SDS011;54773;53.388;-1.504;2023-06-22T04:04:04;5.22;;;3.40;;
67997;SDS011;54773;53.388;-1.504;2023-06-22T04:06:48;6.65;;;3.55;;
67997;SDS011;54773;53.388;-1.504;2023-06-22T04:09:32;5.43;;;3.20;;
67997;SDS011;54773;53.388;-1.504;2023-06-22T04:12:16;5.85;;;3.22;;
67997;SDS011;54773;53.388;-1.504;2023-06-22T04:14:59;5.85;;;3.70;;
67997;SDS011;54773;53.388;-1.504;2023-06-22T04:17:43;5.97;;;3.38;;
67997;SDS011;54773;53.388;-1.504;2023-06-22T04:20:27;6.23;;;3.27;;
67997;SDS011;54773;53.388;-1.504;2023-06-22T04:23:11;4.82;;;3.22;;
67997;SDS011;54773;53.388;-1.504;2023-06-22T04:25:56;8.50;;;3.63;;
67997;SDS011;54773;53.388;-1.504;2023-06-22T04:28:40;7.20;;;3.42;;
67997;SDS011;54773;53.388;-1.504;2023-06-22T04:31:25;5.63;;;3.33;;
67997;SDS011;54773;53.388;-1.504;2023-06-22T04:34:15;7.47;;;3.88;;
67997;SDS011;54773;53.388;-1.504;2023-06-22T04:36:59;7.40;;;4.03;;
67997;SDS011;54773;53.388;-1.504;2023-06-22T04:39:43;6.95;;;3.65;;
67997;SDS011;54773;53.388;-1.504;2023-06-22T04:42:27;6.78;;;3.90;;
67997;SDS011;54773;53.388;-1.504;2023-06-22T04:45:11;7.22;;;3.70;;
67997;SDS011;54773;53.388;-1.504;2023-06-22T04:47:57;5.97;;;3.55;;
67997;SDS011;54773;53.388;-1.504;2023-06-22T04:50:44;8.68;;;3.38;;
67997;SDS011;54773;53.388;-1.504;2023-06-22T04:53:28;5.53;;;3.38;;
67997;SDS011;54773;53.388;-1.504;2023-06-22T04:56:13;6.55;;;3.72;;
67997;SDS011;54773;53.388;-1.504;2023-06-22T04:58:59;5.60;;;3.33;;
67997;SDS011;54773;53.388;-1.504;2023-06-22T05:01:43;6.25;;;3.47;;
67997;SDS011;54773;53.388;-1.504;2023-06-22T05:04:28;5.67;;;3.40;;
67997;SDS011;54773;53.388;-1.504;2023-06-22T05:07:14;6.80;;;3.63;;
67997;SDS011;54773;53.388;-1.504;2023-06-22T05:09:58;7.43;;;3.50;;
67997;SDS011;54773;53.388;-1.504;2023-06-22T05:12:42;6.15;;;3.60;;
67997;SDS011;54773;53.388;-1.504;2023-06-22T05:15:26;6.78;;;3.40;;
67997;SDS011;54773;53.388;-1.504;2023-06-22T05:18:14;6.72;;;2.90;;
67997;SDS011;54773;53.388;-1.504;2023-06-22T05:21:01;7.28;;;3.47;;
67997;SDS011;54773;53.388;-1.504;2023-06-22T05:23:50;6.07;;;3.53;;
67997;SDS011;54773;53.388;-1.504;2023-06-22T05:26:37;7.25;;;3.42;;
67997;SDS011;54773;53.388;-1.504;2023-06-22T05:29:22;6.20;;;3.42;;
67997;SDS011;54773;53.388;-1.504;2023-06-22T05:32:06;5.93;;;3.25;;
67997;SDS011;54773;53.388;-1.504;2023-06-22T05:34:51;6.10;;;3.60;;
67997;SDS011;54773;53.388;-1.504;2023-06-22T05:37:35;5.55;;;3.40;;
67997;SDS011;54773;53.388;-1.504;2023-06-22T05:40:19;7.28;;;2.97;;
67997;SDS011;54773;53.388;-1.504;2023-06-22T05:43:02;5.35;;;3.10;;
67997;SDS011;54773;53.388;-1.504;2023-06-22T05:45:46;8.02;;;3.20;;
67997;SDS011;54773;53.388;-1.504;2023-06-22T05:48:30;5.90;;;3.13;;
67997;SDS011;54773;53.388;-1.504;2023-06-22T05:51:14;5.53;;;3.05;;
67997;SDS011;54773;53.388;-1.504;2023-06-22T05:53:58;7.10;;;3.20;;
67997;SDS011;54773;53.388;-1.504;2023-06-22T05:56:43;6.70;;;3.10;;
67997;SDS011;54773;53.388;-1.504;2023-06-22T05:59:27;5.80;;;3.03;;
67997;SDS011;54773;53.388;-1.504;2023-06-22T06:02:11;5.63;;;3.00;;
67997;SDS011;54773;53.388;-1.504;2023-06-22T06:04:55;6.47;;;3.58;;
67997;SDS011;54773;53.388;-1.504;2023-06-22T06:07:42;5.22;;;2.78;;
67997;SDS011;54773;53.388;-1.504;2023-06-22T06:10:27;5.10;;;2.97;;
67997;SDS011;54773;53.388;-1.504;2023-06-22T06:13:13;5.72;;;2.83;;
67997;SDS011;54773;53.388;-1.504;2023-06-22T06:15:57;5.00;;;2.97;;
67997;SDS011;54773;53.388;-1.504;2023-06-22T06:18:41;6.43;;;2.70;;
67997;SDS011;54773;53.388;-1.504;2023-06-22T06:21:25;4.57;;;2.67;;
67997;SDS011;54773;53.388;-1.504;2023-06-22T06:24:09;4.85;;;2.75;;
67997;SDS011;54773;53.388;-1.504;2023-06-22T06:26:53;5.03;;;2.80;;
67997;SDS011;54773;53.388;-1.504;2023-06-22T06:29:37;6.87;;;3.00;;
67997;SDS011;54773;53.388;-1.504;2023-06-22T06:32:21;4.88;;;3.25;;
67997;SDS011;54773;53.388;-1.504;2023-06-22T06:35:06;5.23;;;2.80;;
67997;SDS011;54773;53.388;-1.504;2023-06-22T06:37:50;6.75;;;3.08;;
67997;SDS011;54773;53.388;-1.504;2023-06-22T06:40:34;6.13;;;2.80;;
67997;SDS011;54773;53.388;-1.504;2023-06-22T06:43:19;6.15;;;2.90;;
67997;SDS011;54773;53.388;-1.504;2023-06-22T06:46:03;6.25;;;3.42;;
67997;SDS011;54773;53.388;-1.504;2023-06-22T06:48:50;6.88;;;3.53;;
67997;SDS011;54773;53.388;-1.504;2023-06-22T06:51:37;5.10;;;2.90;;
67997;SDS011;54773;53.388;-1.504;2023-06-22T06:54:21;5.40;;;3.03;;
67997;SDS011;54773;53.388;-1.504;2023-06-22T06:57:06;5.53;;;3.15;;
67997;SDS011;54773;53.388;-1.504;2023-06-22T06:59:54;5.68;;;2.72;;
67997;SDS011;54773;53.388;-1.504;2023-06-22T07:02:40;5.63;;;3.20;;
67997;SDS011;54773;53.388;-1.504;2023-06-22T07:05:25;9.10;;;3.30;;
67997;SDS011;54773;53.388;-1.504;2023-06-22T07:08:12;6.30;;;3.00;;
67997;SDS011;54773;53.388;-1.504;2023-06-22T07:10:56;5.63;;;3.08;;
67997;SDS011;54773;53.388;-1.504;2023-06-22T07:13:40;6.05;;;2.95;;
67997;SDS011;54773;53.388;-1.504;2023-06-22T07:16:24;7.63;;;3.22;;
67997;SDS011;54773;53.388;-1.504;2023-06-22T07:19:11;5.45;;;3.20;;
67997;SDS011;54773;53.388;-1.504;2023-06-22T07:21:56;5.38;;;3.17;;
67997;SDS011;54773;53.388;-1.504;2023-06-22T07:24:41;6.60;;;3.40;;
67997;SDS011;54773;53.388;-1.504;2023-06-22T07:27:31;7.43;;;3.42;;
67997;SDS011;54773;53.388;-1.504;2023-06-22T07:30:19;5.80;;;3.13;;
67997;SDS011;54773;53.388;-1.504;2023-06-22T07:33:03;6.22;;;3.30;;
67997;SDS011;54773;53.388;-1.504;2023-06-22T07:35:47;4.82;;;3.10;;
67997;SDS011;54773;53.388;-1.504;2023-06-22T07:38:32;4.45;;;2.80;;
67997;SDS011;54773;53.388;-1.504;2023-06-22T07:41:16;5.70;;;2.70;;
67997;SDS011;54773;53.388;-1.504;2023-06-22T07:44:01;5.63;;;3.13;;
67997;SDS011;54773;53.388;-1.504;2023-06-22T07:46:46;8.13;;;3.58;;
67997;SDS011;54773;53.388;-1.504;2023-06-22T07:49:33;7.78;;;3.00;;
67997;SDS011;54773;53.388;-1.504;2023-06-22T07:52:17;5.25;;;2.67;;
67997;SDS011;54773;53.388;-1.504;2023-06-22T07:55:01;6.60;;;3.40;;
67997;SDS011;54773;53.388;-1.504;2023-06-22T07:57:46;5.68;;;3.33;;
67997;SDS011;54773;53.388;-1.504;2023-06-22T08:00:34;7.47;;;3.42;;
67997;SDS011;54773;53.388;-1.504;2023-06-22T08:03:18;6.75;;;3.67;;
67997;SDS011;54773;53.388;-1.504;2023-06-22T08:06:05;5.43;;;3.08;;
67997;SDS011;54773;53.388;-1.504;2023-06-22T08:08:49;6.35;;;3.20;;
67997;SDS011;54773;53.388;-1.504;2023-06-22T08:11:37;7.35;;;3.70;;
67997;SDS011;54773;53.388;-1.504;2023-06-22T08:14:21;6.00;;;3.53;;
67997;SDS011;54773;53.388;-1.504;2023-06-22T08:17:05;7.20;;;3.58;;
67997;SDS011;54773;53.388;-1.504;2023-06-22T08:19:51;6.13;;;3.58;;
67997;SDS011;54773;53.388;-1.504;2023-06-22T08:22:35;6.97;;;3.90;;
67997;SDS011;54773;53.388;-1.504;2023-06-22T08:25:20;8.73;;;3.40;;
67997;SDS011;54773;53.388;-1.504;2023-06-22T08:28:04;6.38;;;3.72;;
67997;SDS011;54773;53.388;-1.504;2023-06-22T08:30:50;7.30;;;3.85;;
67997;SDS011;54773;53.388;-1.504;2023-06-22T08:33:34;6.13;;;3.70;;
67997;SDS011;54773;53.388;-1.504;2023-06-22T08:36:19;6.38;;;3.90;;
67997;SDS011;54773;53.388;-1.504;2023-06-22T08:39:03;7.20;;;3.65;;
67997;SDS011;54773;53.388;-1.504;2023-06-22T08:44:31;6.60;;;3.78;;
67997;SDS011;54773;53.388;-1.504;2023-06-22T08:47:15;7.00;;;4.00;;
67997;SDS011;54773;53.388;-1.504;2023-06-22T08:49:59;6.63;;;3.83;;
67997;SDS011;54773;53.388;-1.504;2023-06-22T08:52:46;7.20;;;3.75;;
67997;SDS011;54773;53.388;-1.504;2023-06-22T08:55:30;8.10;;;4.18;;
67997;SDS011;54773;53.388;-1.504;2023-06-22T08:58:14;7.28;;;4.25;;
67997;SDS011;54773;53.388;-1.504;2023-06-22T09:03:45;6.53;;;3.42;;
67997;SDS011;54773;53.388;-1.504;2023-06-22T09:06:37;7.40;;;3.90;;
67997;SDS011;54773;53.388;-1.504;2023-06-22T09:09:28;5.22;;;3.42;;
67997;SDS011;54773;53.388;-1.504;2023-06-22T09:12:12;6.68;;;3.90;;
67997;SDS011;54773;53.388;-1.504;2023-06-22T09:14:56;6.72;;;4.45;;
67997;SDS011;54773;53.388;-1.504;2023-06-22T09:17:40;7.28;;;4.30;;
67997;SDS011;54773;53.388;-1.504;2023-06-22T09:23:09;7.45;;;3.92;;
67997;SDS011;54773;53.388;-1.504;2023-06-22T09:25:53;7.40;;;3.97;;
67997;SDS011;54773;53.388;-1.504;2023-06-22T09:28:40;8.25;;;4.40;;
67997;SDS011;54773;53.388;-1.504;2023-06-22T09:31:24;7.90;;;4.20;;
67997;SDS011;54773;53.388;-1.504;2023-06-22T09:34:11;7.20;;;4.90;;
67997;SDS011;54773;53.388;-1.504;2023-06-22T09:36:55;7.85;;;4.70;;
67997;SDS011;54773;53.388;-1.504;2023-06-22T09:39:41;6.90;;;4.07;;
67997;SDS011;54773;53.388;-1.504;2023-06-22T09:42:25;7.10;;;3.45;;
67997;SDS011;54773;53.388;-1.504;2023-06-22T09:45:09;6.38;;;3.63;;
67997;SDS011;54773;53.388;-1.504;2023-06-22T09:50:37;6.90;;;3.55;;
67997;SDS011;54773;53.388;-1.504;2023-06-22T09:56:06;5.00;;;3.08;;
67997;SDS011;54773;53.388;-1.504;2023-06-22T09:58:50;5.47;;;3.47;;
67997;SDS011;54773;53.388;-1.504;2023-06-22T10:01:36;6.80;;;3.63;;
67997;SDS011;54773;53.388;-1.504;2023-06-22T10:04:24;8.00;;;4.13;;
67997;SDS011;54773;53.388;-1.504;2023-06-22T10:07:09;5.97;;;3.50;;
67997;SDS011;54773;53.388;-1.504;2023-06-22T10:09:53;6.70;;;3.70;;
67997;SDS011;54773;53.388;-1.504;2023-06-22T10:12:47;7.18;;;4.05;;
67997;SDS011;54773;53.388;-1.504;2023-06-22T10:15:38;7.72;;;4.70;;
67997;SDS011;54773;53.388;-1.504;2023-06-22T10:18:22;9.70;;;4.75;;
67997;SDS011;54773;53.388;-1.504;2023-06-22T10:21:10;7.60;;;4.70;;
67997;SDS011;54773;53.388;-1.504;2023-06-22T10:23:54;8.52;;;5.22;;
67997;SDS011;54773;53.388;-1.504;2023-06-22T10:26:39;9.10;;;5.00;;
67997;SDS011;54773;53.388;-1.504;2023-06-22T10:29:23;8.48;;;4.80;;
67997;SDS011;54773;53.388;-1.504;2023-06-22T10:32:10;8.02;;;5.22;;
67997;SDS011;54773;53.388;-1.504;2023-06-22T10:34:54;9.38;;;5.35;;
67997;SDS011;54773;53.388;-1.504;2023-06-22T10:37:38;8.55;;;5.47;;
67997;SDS011;54773;53.388;-1.504;2023-06-22T10:40:22;8.50;;;5.35;;
67997;SDS011;54773;53.388;-1.504;2023-06-22T10:45:50;9.85;;;5.32;;
67997;SDS011;54773;53.388;-1.504;2023-06-22T10:48:34;8.55;;;5.20;;
67997;SDS011;54773;53.388;-1.504;2023-06-22T10:51:18;8.32;;;4.80;;
67997;SDS011;54773;53.388;-1.504;2023-06-22T10:54:02;9.82;;;5.28;;
67997;SDS011;54773;53.388;-1.504;2023-06-22T10:56:48;11.38;;;6.00;;
67997;SDS011;54773;53.388;-1.504;2023-06-22T10:59:32;9.95;;;5.63;;
67997;SDS011;54773;53.388;-1.504;2023-06-22T11:02:16;8.13;;;5.75;;
67997;SDS011;54773;53.388;-1.504;2023-06-22T11:05:00;10.35;;;6.10;;
67997;SDS011;54773;53.388;-1.504;2023-06-22T11:07:44;10.75;;;5.95;;
67997;SDS011;54773;53.388;-1.504;2023-06-22T11:10:31;10.23;;;5.50;;
67997;SDS011;54773;53.388;-1.504;2023-06-22T11:13:14;8.68;;;5.70;;
67997;SDS011;54773;53.388;-1.504;2023-06-22T11:16:05;10.10;;;6.35;;
67997;SDS011;54773;53.388;-1.504;2023-06-22T11:18:49;8.98;;;5.70;;
67997;SDS011;54773;53.388;-1.504;2023-06-22T11:21:33;10.45;;;6.32;;
67997;SDS011;54773;53.388;-1.504;2023-06-22T11:24:17;8.70;;;6.30;;
67997;SDS011;54773;53.388;-1.504;2023-06-22T11:29:48;10.05;;;6.15;;
67997;SDS011;54773;53.388;-1.504;2023-06-22T11:32:33;9.30;;;6.30;;
67997;SDS011;54773;53.388;-1.504;2023-06-22T11:35:18;12.02;;;6.30;;
67997;SDS011;54773;53.388;-1.504;2023-06-22T11:38:05;9.35;;;6.22;;
67997;SDS011;54773;53.388;-1.504;2023-06-22T11:40:49;9.10;;;6.28;;
67997;SDS011;54773;53.388;-1.504;2023-06-22T11:43:33;10.10;;;6.15;;
67997;SDS011;54773;53.388;-1.504;2023-06-22T11:46:17;9.68;;;6.15;;
67997;SDS011;54773;53.388;-1.504;2023-06-22T11:49:01;12.95;;;7.20;;
67997;SDS011;54773;53.388;-1.504;2023-06-22T11:51:48;10.45;;;7.05;;
67997;SDS011;54773;53.388;-1.504;2023-06-22T11:54:32;8.60;;;6.50;;
67997;SDS011;54773;53.388;-1.504;2023-06-22T11:57:16;12.57;;;8.48;;
67997;SDS011;54773;53.388;-1.504;2023-06-22T11:59:59;13.10;;;8.23;;
67997;SDS011;54773;53.388;-1.504;2023-06-22T12:02:44;12.27;;;7.78;;
67997;SDS011;54773;53.388;-1.504;2023-06-22T12:05:31;10.15;;;7.35;;
67997;SDS011;54773;53.388;-1.504;2023-06-22T12:08:15;10.65;;;7.75;;
67997;SDS011;54773;53.388;-1.504;2023-06-22T12:11:02;12.25;;;7.80;;
67997;SDS011;54773;53.388;-1.504;2023-06-22T12:13:46;11.48;;;7.45;;
67997;SDS011;54773;53.388;-1.504;2023-06-22T12:16:30;9.88;;;6.35;;
67997;SDS011;54773;53.388;-1.504;2023-06-22T12:19:14;11.05;;;6.28;;
67997;SDS011;54773;53.388;-1.504;2023-06-22T12:22:01;7.90;;;4.72;;
67997;SDS011;54773;53.388;-1.504;2023-06-22T12:24:45;6.82;;;4.07;;
67997;SDS011;54773;53.388;-1.504;2023-06-22T12:27:29;5.90;;;3.65;;
67997;SDS011;54773;53.388;-1.504;2023-06-22T12:30:15;6.70;;;4.60;;
67997;SDS011;54773;53.388;-1.504;2023-06-22T12:32:59;8.32;;;4.90;;
67997;SDS011;54773;53.388;-1.504;2023-06-22T12:35:50;8.48;;;5.60;;
67997;SDS011;54773;53.388;-1.504;2023-06-22T12:38:33;9.85;;;5.38;;
67997;SDS011;54773;53.388;-1.504;2023-06-22T12:41:21;7.45;;;5.10;;
67997;SDS011;54773;53.388;-1.504;2023-06-22T12:44:08;7.50;;;4.65;;
67997;SDS011;54773;53.388;-1.504;2023-06-22T12:46:52;6.75;;;4.82;;
67997;SDS011;54773;53.388;-1.504;2023-06-22T12:52:23;6.75;;;4.88;;
67997;SDS011;54773;53.388;-1.504;2023-06-22T12:55:07;7.78;;;4.97;;
67997;SDS011;54773;53.388;-1.504;2023-06-22T12:57:51;10.82;;;6.22;;
67997;SDS011;54773;53.388;-1.504;2023-06-22T13:00:35;10.57;;;6.07;;
67997;SDS011;54773;53.388;-1.504;2023-06-22T13:03:19;8.77;;;5.15;;
67997;SDS011;54773;53.388;-1.504;2023-06-22T13:06:03;7.30;;;5.75;;
67997;SDS011;54773;53.388;-1.504;2023-06-22T13:08:48;8.27;;;5.43;;
67997;SDS011;54773;53.388;-1.504;2023-06-22T13:11:32;6.47;;;4.78;;
67997;SDS011;54773;53.388;-1.504;2023-06-22T13:14:16;6.88;;;4.80;;
67997;SDS011;54773;53.388;-1.504;2023-06-22T13:17:00;6.93;;;4.72;;
67997;SDS011;54773;53.388;-1.504;2023-06-22T13:19:44;7.10;;;4.75;;
67997;SDS011;54773;53.388;-1.504;2023-06-22T13:25:16;6.32;;;3.90;;
67997;SDS011;54773;53.388;-1.504;2023-06-22T13:28:02;6.18;;;3.72;;
67997;SDS011;54773;53.388;-1.504;2023-06-22T13:30:47;5.55;;;3.53;;
67997;SDS011;54773;53.388;-1.504;2023-06-22T13:36:16;5.80;;;3.78;;
67997;SDS011;54773;53.388;-1.504;2023-06-22T13:39:01;4.88;;;3.60;;
67997;SDS011;54773;53.388;-1.504;2023-06-22T13:41:45;5.93;;;3.20;;
67997;SDS011;54773;53.388;-1.504;2023-06-22T13:47:13;4.57;;;3.22;;
67997;SDS011;54773;53.388;-1.504;2023-06-22T13:49:57;5.57;;;2.90;;
67997;SDS011;54773;53.388;-1.504;2023-06-22T13:52:42;5.97;;;3.40;;
67997;SDS011;54773;53.388;-1.504;2023-06-22T13:55:26;5.00;;;3.00;;
67997;SDS011;54773;53.388;-1.504;2023-06-22T13:58:10;5.82;;;3.20;;
67997;SDS011;54773;53.388;-1.504;2023-06-22T14:00:54;4.68;;;2.95;;
67997;SDS011;54773;53.388;-1.504;2023-06-22T14:03:38;4.63;;;3.00;;
67997;SDS011;54773;53.388;-1.504;2023-06-22T14:09:06;5.10;;;2.85;;
67997;SDS011;54773;53.388;-1.504;2023-06-22T14:11:50;7.70;;;3.05;;
67997;SDS011;54773;53.388;-1.504;2023-06-22T14:14:35;5.85;;;3.00;;
67997;SDS011;54773;53.388;-1.504;2023-06-22T14:17:19;4.38;;;2.60;;
67997;SDS011;54773;53.388;-1.504;2023-06-22T14:20:08;4.35;;;2.88;;
67997;SDS011;54773;53.388;-1.504;2023-06-22T14:22:53;5.00;;;3.05;;
67997;SDS011;54773;53.388;-1.504;2023-06-22T14:25:37;5.63;;;3.03;;
67997;SDS011;54773;53.388;-1.504;2023-06-22T14:28:21;5.88;;;3.20;;
67997;SDS011;54773;53.388;-1.504;2023-06-22T14:33:50;4.82;;;2.80;;
67997;SDS011;54773;53.388;-1.504;2023-06-22T14:39:18;5.40;;;2.88;;
67997;SDS011;54773;53.388;-1.504;2023-06-22T14:42:02;6.22;;;3.10;;
67997;SDS011;54773;53.388;-1.504;2023-06-22T14:44:47;6.57;;;3.25;;
67997;SDS011;54773;53.388;-1.504;2023-06-22T14:47:32;4.97;;;3.10;;
67997;SDS011;54773;53.388;-1.504;2023-06-22T14:50:16;5.82;;;3.50;;
67997;SDS011;54773;53.388;-1.504;2023-06-22T14:53:00;5.15;;;3.08;;
67997;SDS011;54773;53.388;-1.504;2023-06-22T14:55:44;5.63;;;3.13;;
67997;SDS011;54773;53.388;-1.504;2023-06-22T14:58:31;5.55;;;3.17;;
67997;SDS011;54773;53.388;-1.504;2023-06-22T15:01:22;5.25;;;2.95;;
67997;SDS011;54773;53.388;-1.504;2023-06-22T15:04:06;5.13;;;3.38;;
67997;SDS011;54773;53.388;-1.504;2023-06-22T15:06:50;7.13;;;3.22;;
67997;SDS011;54773;53.388;-1.504;2023-06-22T15:09:34;6.78;;;3.25;;
67997;SDS011;54773;53.388;-1.504;2023-06-22T15:12:18;5.80;;;3.20;;
67997;SDS011;54773;53.388;-1.504;2023-06-22T15:15:02;6.10;;;3.28;;
67997;SDS011;54773;53.388;-1.504;2023-06-22T15:20:31;6.72;;;3.55;;
67997;SDS011;54773;53.388;-1.504;2023-06-22T15:23:15;5.47;;;3.58;;
67997;SDS011;54773;53.388;-1.504;2023-06-22T15:26:00;6.53;;;3.58;;
67997;SDS011;54773;53.388;-1.504;2023-06-22T15:28:46;6.82;;;4.25;;
67997;SDS011;54773;53.388;-1.504;2023-06-22T15:31:33;7.30;;;3.88;;
67997;SDS011;54773;53.388;-1.504;2023-06-22T15:34:18;5.95;;;3.40;;
67997;SDS011;54773;53.388;-1.504;2023-06-22T15:37:02;5.95;;;3.50;;
67997;SDS011;54773;53.388;-1.504;2023-06-22T15:39:46;6.30;;;3.95;;
67997;SDS011;54773;53.388;-1.504;2023-06-22T15:42:30;6.57;;;4.13;;
67997;SDS011;54773;53.388;-1.504;2023-06-22T15:47:59;5.70;;;3.40;;
67997;SDS011;54773;53.388;-1.504;2023-06-22T15:50:43;7.95;;;4.22;;
67997;SDS011;54773;53.388;-1.504;2023-06-22T15:56:11;5.50;;;3.10;;
67997;SDS011;54773;53.388;-1.504;2023-06-22T15:58:55;5.72;;;3.30;;
67997;SDS011;54773;53.388;-1.504;2023-06-22T16:01:43;7.50;;;3.42;;
67997;SDS011;54773;53.388;-1.504;2023-06-22T16:04:27;6.35;;;3.90;;
67997;SDS011;54773;53.388;-1.504;2023-06-22T16:07:11;5.53;;;3.53;;
67997;SDS011;54773;53.388;-1.504;2023-06-22T16:09:59;5.63;;;3.60;;
67997;SDS011;54773;53.388;-1.504;2023-06-22T16:12:43;5.60;;;3.65;;
67997;SDS011;54773;53.388;-1.504;2023-06-22T16:15:28;6.55;;;3.60;;
67997;SDS011;54773;53.388;-1.504;2023-06-22T16:18:12;6.10;;;3.28;;
67997;SDS011;54773;53.388;-1.504;2023-06-22T16:20:56;5.40;;;3.60;;
67997;SDS011;54773;53.388;-1.504;2023-06-22T16:23:40;5.47;;;3.30;;
67997;SDS011;54773;53.388;-1.504;2023-06-22T16:26:25;5.45;;;3.63;;
67997;SDS011;54773;53.388;-1.504;2023-06-22T16:29:09;5.90;;;3.60;;
67997;SDS011;54773;53.388;-1.504;2023-06-22T16:31:54;5.47;;;3.30;;
67997;SDS011;54773;53.388;-1.504;2023-06-22T16:34:41;5.45;;;3.38;;
67997;SDS011;54773;53.388;-1.504;2023-06-22T16:37:26;5.60;;;3.45;;
67997;SDS011;54773;53.388;-1.504;2023-06-22T16:40:10;5.70;;;3.53;;
67997;SDS011;54773;53.388;-1.504;2023-06-22T16:45:38;4.93;;;3.20;;
67997;SDS011;54773;53.388;-1.504;2023-06-22T16:48:22;5.47;;;3.30;;
67997;SDS011;54773;53.388;-1.504;2023-06-22T16:51:06;8.90;;;3.47;;
67997;SDS011;54773;53.388;-1.504;2023-06-22T16:53:54;5.22;;;3.17;;
67997;SDS011;54773;53.388;-1.504;2023-06-22T16:56:42;5.68;;;3.30;;
67997;SDS011;54773;53.388;-1.504;2023-06-22T16:59:30;6.57;;;3.72;;
67997;SDS011;54773;53.388;-1.504;2023-06-22T17:02:17;6.05;;;3.40;;
67997;SDS011;54773;53.388;-1.504;2023-06-22T17:05:03;7.63;;;3.58;;
67997;SDS011;54773;53.388;-1.504;2023-06-22T17:07:48;5.20;;;3.45;;
67997;SDS011;54773;53.388;-1.504;2023-06-22T17:10:43;5.13;;;3.70;;